Hovedside
METAR-TAF:

METAR-TAF

Lufthavner :

Linz, Østerrike

breddegrad: 48-14N, lengdegrad: 014-11E, høyde over havet: 298 m

Gjeldene værobservasjon

Denne rapporten ble laget for 35 minutter siden, klokken 10:50 UTC
Vind 3 kt fra skiftende retning
Temperatur 28°C
Luftfuktighet 62%
Trykk 1013 hPa
Sikt 10 km eller mer

METAR: LOWL 191050Z AUTO VRB03KT 9999 NCD 28/20 Q1013 TEMPO 27007KT

Tid: 13:25 (11:25 UTC)

Varsel

Denne rapporten ble laget for 6 timer og 10 minutter siden, klokken 05:15 UTC
Varsel gyldig fra 19. klokken 06 UTC til 20. klokken 06 UTC
Vind 3 kt fra Vest
Sikt 10 km eller mer
ingen skyer under 1500 m og ingen bygeskyer
Midlertidig
fra 19. klokken 19 UTC til 19. klokken 23 UTC
Vind 10 kt fra Nord
Blir
fra 20. klokken 04 UTC til 20. klokken 06 UTC
Vind 8 kt fra Øst

TAF: LOWL 190515Z 1906/2006 27003KT CAVOK TX32/1914Z TN19/2003Z TEMPO 1919/1923 35010KT BECMG 2004/2006 08008KT

Værobservasjoner og værvarsel for over 4000 flyplasser (METAR- og TAF-rapporter).

Tilgjengelige stasjoner er representert av de røde og gule prikkene på kartet.

Hold musepekeren over prikken for å se navnet på stasjonen.

Klikk så for å se værobservasjoner og -varsler.

For å forandre kartet kan du klikke på den grønne knappen med svart kryss for å zoome inn, på den grønne knappen med strek for å zoome ut, eller på de grønne pilene for å se tilstøtende kart.


METAR-TAF: